Hlavní strana
METAR-TAF:

METAR-TAF

Letiště :

Hannibal, Missouri, Spojené státy americké

zeměpisná šířka: 39-43-31N, zeměpisná délka: 091-26-38W, výška: 234 m

Aktuální stav počasí

Zpráva byla vytvořena před 28 minutami, v 10:15 UTC
Bezvětří
Teplota 0°C
Vlhkost vzduchu 100%
Tlak 1009 hPa
Viditelnost: 0.8 km
Zataženo ve výšce 200 ft
mlha

METAR: KHAE 241015Z AUTO 00000KT 1/2SM FG OVC002 00/00 A2980 RMK AO2

Čas: 04:43 (10:43 UTC)


TAF: chybějící

Stav a předpovědi počasí z více než 4 000 letišť (zprávy METAR a TAF).

Červené a žluté tečky na mapě představují dostupné meteorologické stanice.

Když kurzor umístíte na tečku, zobrazí se název stanice.

Pak kliknutím zobrazíte stav a předpověď počasí.

Chcete-li změnit mapu, kliknutím na zelené tlačítko se znaménkem +mapu přiblížíte, kliknutím na zelené tlačítko se znaménkem – mapu oddálíte a kliknutím na zelené šipky přejdete na sousední mapy.


METAR-TAF: